sensor_id;sensor_type;location;lat;lon;timestamp;temperature;humidity
22319;DHT22;11327;52.334;9.506;2023-08-24T00:00:49;18.20;99.90
22319;DHT22;11327;52.334;9.506;2023-08-24T00:04:09;18.30;99.90
22319;DHT22;11327;52.334;9.506;2023-08-24T00:07:31;18.30;99.90
22319;DHT22;11327;52.334;9.506;2023-08-24T00:10:52;18.30;99.90
22319;DHT22;11327;52.334;9.506;2023-08-24T00:14:13;18.30;99.90
22319;DHT22;11327;52.334;9.506;2023-08-24T00:17:34;18.20;99.90
22319;DHT22;11327;52.334;9.506;2023-08-24T00:20:55;18.10;99.90
22319;DHT22;11327;52.334;9.506;2023-08-24T00:24:16;18.10;99.90
22319;DHT22;11327;52.334;9.506;2023-08-24T00:27:37;18.10;99.90
22319;DHT22;11327;52.334;9.506;2023-08-24T00:30:58;18.10;99.90
22319;DHT22;11327;52.334;9.506;2023-08-24T00:34:18;18.00;99.90
22319;DHT22;11327;52.334;9.506;2023-08-24T00:37:40;18.00;99.90
22319;DHT22;11327;52.334;9.506;2023-08-24T00:41:01;17.90;99.90
22319;DHT22;11327;52.334;9.506;2023-08-24T00:44:22;17.90;99.90
22319;DHT22;11327;52.334;9.506;2023-08-24T00:47:46;17.80;99.90
22319;DHT22;11327;52.334;9.506;2023-08-24T00:51:08;17.80;99.90
22319;DHT22;11327;52.334;9.506;2023-08-24T00:54:28;17.80;99.90
22319;DHT22;11327;52.334;9.506;2023-08-24T00:57:49;17.70;99.90
22319;DHT22;11327;52.334;9.506;2023-08-24T01:01:11;17.60;99.90
22319;DHT22;11327;52.334;9.506;2023-08-24T01:04:32;17.70;99.90
22319;DHT22;11327;52.334;9.506;2023-08-24T01:07:53;17.80;99.90
22319;DHT22;11327;52.334;9.506;2023-08-24T01:11:38;17.70;99.90
22319;DHT22;11327;52.334;9.506;2023-08-24T01:18:50;17.70;99.90
22319;DHT22;11327;52.334;9.506;2023-08-24T01:26:06;17.40;99.90
22319;DHT22;11327;52.334;9.506;2023-08-24T01:29:27;17.30;99.90
22319;DHT22;11327;52.334;9.506;2023-08-24T01:32:48;17.30;99.90
22319;DHT22;11327;52.334;9.506;2023-08-24T01:36:11;17.20;99.90
22319;DHT22;11327;52.334;9.506;2023-08-24T01:39:42;17.20;99.90
22319;DHT22;11327;52.334;9.506;2023-08-24T01:43:05;17.10;99.90
22319;DHT22;11327;52.334;9.506;2023-08-24T01:46:28;17.00;99.90
22319;DHT22;11327;52.334;9.506;2023-08-24T01:49:50;17.10;99.90
22319;DHT22;11327;52.334;9.506;2023-08-24T01:53:11;17.10;99.90
22319;DHT22;11327;52.334;9.506;2023-08-24T01:56:31;17.00;99.90
22319;DHT22;11327;52.334;9.506;2023-08-24T01:59:52;17.00;99.90
22319;DHT22;11327;52.334;9.506;2023-08-24T02:03:13;17.00;99.90
22319;DHT22;11327;52.334;9.506;2023-08-24T02:06:33;17.00;99.90
22319;DHT22;11327;52.334;9.506;2023-08-24T02:09:54;17.00;99.90
22319;DHT22;11327;52.334;9.506;2023-08-24T02:13:15;17.00;99.90
22319;DHT22;11327;52.334;9.506;2023-08-24T02:16:36;16.90;99.90
22319;DHT22;11327;52.334;9.506;2023-08-24T02:19:56;17.10;99.90
22319;DHT22;11327;52.334;9.506;2023-08-24T02:23:17;17.00;99.90
22319;DHT22;11327;52.334;9.506;2023-08-24T02:26:38;16.90;99.90
22319;DHT22;11327;52.334;9.506;2023-08-24T02:29:58;16.80;99.90
22319;DHT22;11327;52.334;9.506;2023-08-24T02:33:19;16.80;99.90
22319;DHT22;11327;52.334;9.506;2023-08-24T02:36:40;16.70;99.90
22319;DHT22;11327;52.334;9.506;2023-08-24T02:40:00;16.60;99.90
22319;DHT22;11327;52.334;9.506;2023-08-24T02:43:21;16.60;99.90
22319;DHT22;11327;52.334;9.506;2023-08-24T02:46:44;16.60;99.90
22319;DHT22;11327;52.334;9.506;2023-08-24T02:50:06;16.60;99.90
22319;DHT22;11327;52.334;9.506;2023-08-24T02:53:27;16.50;99.90
22319;DHT22;11327;52.334;9.506;2023-08-24T02:56:48;16.50;99.90
22319;DHT22;11327;52.334;9.506;2023-08-24T03:00:09;16.50;99.90
22319;DHT22;11327;52.334;9.506;2023-08-24T03:03:30;16.40;99.90
22319;DHT22;11327;52.334;9.506;2023-08-24T03:06:50;16.40;99.90
22319;DHT22;11327;52.334;9.506;2023-08-24T03:10:11;16.40;99.90
22319;DHT22;11327;52.334;9.506;2023-08-24T03:13:35;16.40;99.90
22319;DHT22;11327;52.334;9.506;2023-08-24T03:16:56;16.30;99.90
22319;DHT22;11327;52.334;9.506;2023-08-24T03:20:17;16.30;99.90
22319;DHT22;11327;52.334;9.506;2023-08-24T03:23:38;16.20;99.90
22319;DHT22;11327;52.334;9.506;2023-08-24T03:26:58;16.10;99.90
22319;DHT22;11327;52.334;9.506;2023-08-24T03:30:19;16.20;99.90
22319;DHT22;11327;52.334;9.506;2023-08-24T03:33:40;16.10;99.90
22319;DHT22;11327;52.334;9.506;2023-08-24T03:37:01;16.20;99.90
22319;DHT22;11327;52.334;9.506;2023-08-24T03:40:21;16.20;99.90
22319;DHT22;11327;52.334;9.506;2023-08-24T03:43:42;16.10;99.90
22319;DHT22;11327;52.334;9.506;2023-08-24T03:47:03;16.00;99.90
22319;DHT22;11327;52.334;9.506;2023-08-24T03:50:24;16.00;99.90
22319;DHT22;11327;52.334;9.506;2023-08-24T03:53:46;16.00;99.90
22319;DHT22;11327;52.334;9.506;2023-08-24T03:57:06;16.00;99.90
22319;DHT22;11327;52.334;9.506;2023-08-24T04:00:27;15.90;99.90
22319;DHT22;11327;52.334;9.506;2023-08-24T04:03:48;15.90;99.90
22319;DHT22;11327;52.334;9.506;2023-08-24T04:07:09;15.90;99.90
22319;DHT22;11327;52.334;9.506;2023-08-24T04:10:29;15.90;99.90
22319;DHT22;11327;52.334;9.506;2023-08-24T04:13:51;15.90;99.90
22319;DHT22;11327;52.334;9.506;2023-08-24T04:17:12;15.80;99.90
22319;DHT22;11327;52.334;9.506;2023-08-24T04:20:32;15.80;99.90
22319;DHT22;11327;52.334;9.506;2023-08-24T04:23:54;15.90;99.90
22319;DHT22;11327;52.334;9.506;2023-08-24T04:27:14;15.90;99.90
22319;DHT22;11327;52.334;9.506;2023-08-24T04:30:35;15.90;99.90
22319;DHT22;11327;52.334;9.506;2023-08-24T04:33:56;15.90;99.90
22319;DHT22;11327;52.334;9.506;2023-08-24T04:37:17;16.00;99.90
22319;DHT22;11327;52.334;9.506;2023-08-24T04:40:46;16.10;99.90
22319;DHT22;11327;52.334;9.506;2023-08-24T04:44:07;16.10;99.90
22319;DHT22;11327;52.334;9.506;2023-08-24T04:47:28;16.10;99.90
22319;DHT22;11327;52.334;9.506;2023-08-24T04:50:49;16.10;99.90
22319;DHT22;11327;52.334;9.506;2023-08-24T04:54:10;16.10;99.90
22319;DHT22;11327;52.334;9.506;2023-08-24T04:57:31;16.10;99.90
22319;DHT22;11327;52.334;9.506;2023-08-24T05:00:52;16.20;99.90
22319;DHT22;11327;52.334;9.506;2023-08-24T05:04:12;16.30;99.90
22319;DHT22;11327;52.334;9.506;2023-08-24T05:07:33;16.30;99.90
22319;DHT22;11327;52.334;9.506;2023-08-24T05:10:54;16.30;99.90
22319;DHT22;11327;52.334;9.506;2023-08-24T05:14:15;16.30;99.90
22319;DHT22;11327;52.334;9.506;2023-08-24T05:17:35;16.40;99.90
22319;DHT22;11327;52.334;9.506;2023-08-24T05:20:56;16.40;99.90
22319;DHT22;11327;52.334;9.506;2023-08-24T05:24:17;16.40;99.90
22319;DHT22;11327;52.334;9.506;2023-08-24T05:27:39;16.40;99.90
22319;DHT22;11327;52.334;9.506;2023-08-24T05:31:00;16.40;99.90
22319;DHT22;11327;52.334;9.506;2023-08-24T05:34:20;16.50;99.90
22319;DHT22;11327;52.334;9.506;2023-08-24T05:37:41;16.50;99.90
22319;DHT22;11327;52.334;9.506;2023-08-24T05:41:02;16.50;99.90
22319;DHT22;11327;52.334;9.506;2023-08-24T05:44:22;16.60;99.90
22319;DHT22;11327;52.334;9.506;2023-08-24T05:47:43;16.70;99.90
22319;DHT22;11327;52.334;9.506;2023-08-24T05:51:04;16.70;99.90
22319;DHT22;11327;52.334;9.506;2023-08-24T05:54:26;16.50;99.90
22319;DHT22;11327;52.334;9.506;2023-08-24T05:57:47;16.70;99.90
22319;DHT22;11327;52.334;9.506;2023-08-24T06:01:08;16.70;99.90
22319;DHT22;11327;52.334;9.506;2023-08-24T06:04:29;16.70;99.90
22319;DHT22;11327;52.334;9.506;2023-08-24T06:07:49;16.80;99.90
22319;DHT22;11327;52.334;9.506;2023-08-24T06:11:10;16.80;99.90
22319;DHT22;11327;52.334;9.506;2023-08-24T06:14:31;16.80;99.90
22319;DHT22;11327;52.334;9.506;2023-08-24T06:17:52;16.90;99.90
22319;DHT22;11327;52.334;9.506;2023-08-24T06:21:12;16.90;99.90
22319;DHT22;11327;52.334;9.506;2023-08-24T06:24:33;16.90;99.90
22319;DHT22;11327;52.334;9.506;2023-08-24T06:27:54;16.90;99.90
22319;DHT22;11327;52.334;9.506;2023-08-24T06:31:15;17.00;99.90
22319;DHT22;11327;52.334;9.506;2023-08-24T06:34:36;17.10;99.90
22319;DHT22;11327;52.334;9.506;2023-08-24T06:37:57;17.10;99.90
22319;DHT22;11327;52.334;9.506;2023-08-24T06:41:19;17.20;99.90
22319;DHT22;11327;52.334;9.506;2023-08-24T06:44:40;17.20;99.90
22319;DHT22;11327;52.334;9.506;2023-08-24T06:48:00;17.30;99.90
22319;DHT22;11327;52.334;9.506;2023-08-24T06:51:21;17.40;99.90
22319;DHT22;11327;52.334;9.506;2023-08-24T06:54:42;17.50;99.90
22319;DHT22;11327;52.334;9.506;2023-08-24T06:58:03;17.70;99.90
22319;DHT22;11327;52.334;9.506;2023-08-24T07:01:26;17.70;99.90
22319;DHT22;11327;52.334;9.506;2023-08-24T07:04:48;17.80;99.90
22319;DHT22;11327;52.334;9.506;2023-08-24T07:08:08;17.90;99.90
22319;DHT22;11327;52.334;9.506;2023-08-24T07:11:29;18.10;99.90
22319;DHT22;11327;52.334;9.506;2023-08-24T07:14:50;18.20;99.90
22319;DHT22;11327;52.334;9.506;2023-08-24T07:18:11;18.20;99.90
22319;DHT22;11327;52.334;9.506;2023-08-24T07:21:31;18.30;99.90
22319;DHT22;11327;52.334;9.506;2023-08-24T07:24:53;18.40;99.90
22319;DHT22;11327;52.334;9.506;2023-08-24T07:28:13;18.50;99.90
22319;DHT22;11327;52.334;9.506;2023-08-24T07:31:34;18.70;99.90
22319;DHT22;11327;52.334;9.506;2023-08-24T07:34:55;18.80;99.90
22319;DHT22;11327;52.334;9.506;2023-08-24T07:38:17;18.80;99.90
22319;DHT22;11327;52.334;9.506;2023-08-24T07:41:38;19.10;99.90
22319;DHT22;11327;52.334;9.506;2023-08-24T07:44:58;19.10;99.90
22319;DHT22;11327;52.334;9.506;2023-08-24T07:48:19;19.20;99.90
22319;DHT22;11327;52.334;9.506;2023-08-24T07:51:40;19.40;99.90
22319;DHT22;11327;52.334;9.506;2023-08-24T07:55:02;19.50;99.90
22319;DHT22;11327;52.334;9.506;2023-08-24T07:58:25;19.70;99.90
22319;DHT22;11327;52.334;9.506;2023-08-24T08:01:46;19.90;99.90
22319;DHT22;11327;52.334;9.506;2023-08-24T08:05:07;20.10;99.90
22319;DHT22;11327;52.334;9.506;2023-08-24T08:08:28;20.40;99.90
22319;DHT22;11327;52.334;9.506;2023-08-24T08:11:49;20.70;99.90
22319;DHT22;11327;52.334;9.506;2023-08-24T08:15:10;20.90;99.90
22319;DHT22;11327;52.334;9.506;2023-08-24T08:18:32;20.90;99.90
22319;DHT22;11327;52.334;9.506;2023-08-24T08:21:52;21.10;99.90
22319;DHT22;11327;52.334;9.506;2023-08-24T08:25:13;21.20;99.90
22319;DHT22;11327;52.334;9.506;2023-08-24T08:28:34;21.30;99.90
22319;DHT22;11327;52.334;9.506;2023-08-24T08:31:55;21.50;99.90
22319;DHT22;11327;52.334;9.506;2023-08-24T08:35:15;21.80;99.90
22319;DHT22;11327;52.334;9.506;2023-08-24T08:38:36;22.00;99.90
22319;DHT22;11327;52.334;9.506;2023-08-24T08:41:57;22.10;99.90
22319;DHT22;11327;52.334;9.506;2023-08-24T08:45:18;22.40;99.90
22319;DHT22;11327;52.334;9.506;2023-08-24T08:48:42;22.60;99.90
22319;DHT22;11327;52.334;9.506;2023-08-24T08:52:05;22.90;99.90
22319;DHT22;11327;52.334;9.506;2023-08-24T08:55:26;23.00;99.90
22319;DHT22;11327;52.334;9.506;2023-08-24T08:58:49;23.10;99.90
22319;DHT22;11327;52.334;9.506;2023-08-24T09:02:13;23.40;99.90
22319;DHT22;11327;52.334;9.506;2023-08-24T09:05:37;23.60;99.90
22319;DHT22;11327;52.334;9.506;2023-08-24T09:08:58;23.80;99.90
22319;DHT22;11327;52.334;9.506;2023-08-24T09:12:19;24.00;99.90
22319;DHT22;11327;52.334;9.506;2023-08-24T09:15:39;24.20;99.90
22319;DHT22;11327;52.334;9.506;2023-08-24T09:19:04;24.30;99.90
22319;DHT22;11327;52.334;9.506;2023-08-24T09:22:25;24.40;99.90
22319;DHT22;11327;52.334;9.506;2023-08-24T09:25:46;24.60;99.90
22319;DHT22;11327;52.334;9.506;2023-08-24T09:29:14;24.80;99.90
22319;DHT22;11327;52.334;9.506;2023-08-24T09:32:35;25.00;99.90
22319;DHT22;11327;52.334;9.506;2023-08-24T09:35:56;25.40;99.90
22319;DHT22;11327;52.334;9.506;2023-08-24T09:39:19;25.60;99.90
22319;DHT22;11327;52.334;9.506;2023-08-24T09:42:42;25.90;99.90
22319;DHT22;11327;52.334;9.506;2023-08-24T09:46:03;26.00;99.90
22319;DHT22;11327;52.334;9.506;2023-08-24T09:49:25;26.20;99.90
22319;DHT22;11327;52.334;9.506;2023-08-24T09:52:47;26.10;99.90
22319;DHT22;11327;52.334;9.506;2023-08-24T09:56:09;26.30;99.90
22319;DHT22;11327;52.334;9.506;2023-08-24T09:59:31;26.50;99.90
22319;DHT22;11327;52.334;9.506;2023-08-24T10:02:53;26.60;99.90
22319;DHT22;11327;52.334;9.506;2023-08-24T10:06:14;26.80;99.90
22319;DHT22;11327;52.334;9.506;2023-08-24T10:09:47;26.90;99.90
22319;DHT22;11327;52.334;9.506;2023-08-24T10:13:04;27.00;99.90
22319;DHT22;11327;52.334;9.506;2023-08-24T10:16:27;27.00;99.90
22319;DHT22;11327;52.334;9.506;2023-08-24T10:19:48;26.90;99.90
22319;DHT22;11327;52.334;9.506;2023-08-24T10:23:12;26.90;99.90
22319;DHT22;11327;52.334;9.506;2023-08-24T10:26:36;27.20;99.90
22319;DHT22;11327;52.334;9.506;2023-08-24T10:29:57;27.40;99.90
22319;DHT22;11327;52.334;9.506;2023-08-24T10:33:20;27.60;99.90
22319;DHT22;11327;52.334;9.506;2023-08-24T10:36:41;27.70;99.90
22319;DHT22;11327;52.334;9.506;2023-08-24T10:40:04;27.80;99.90
22319;DHT22;11327;52.334;9.506;2023-08-24T10:43:26;27.70;99.90
22319;DHT22;11327;52.334;9.506;2023-08-24T10:50:28;27.70;99.90
22319;DHT22;11327;52.334;9.506;2023-08-24T10:53:57;27.60;99.90
22319;DHT22;11327;52.334;9.506;2023-08-24T10:57:24;27.80;99.90
22319;DHT22;11327;52.334;9.506;2023-08-24T11:00:48;27.80;99.90
22319;DHT22;11327;52.334;9.506;2023-08-24T11:04:10;27.80;99.90
22319;DHT22;11327;52.334;9.506;2023-08-24T11:07:31;27.80;99.90
22319;DHT22;11327;52.334;9.506;2023-08-24T11:10:52;27.80;99.90
22319;DHT22;11327;52.334;9.506;2023-08-24T11:14:16;27.80;99.90
22319;DHT22;11327;52.334;9.506;2023-08-24T11:17:39;27.90;99.90
22319;DHT22;11327;52.334;9.506;2023-08-24T11:21:03;28.00;99.90
22319;DHT22;11327;52.334;9.506;2023-08-24T11:24:25;28.10;99.90
22319;DHT22;11327;52.334;9.506;2023-08-24T11:27:46;28.20;99.90
22319;DHT22;11327;52.334;9.506;2023-08-24T11:31:08;28.40;99.90
22319;DHT22;11327;52.334;9.506;2023-08-24T11:34:30;28.50;99.90
22319;DHT22;11327;52.334;9.506;2023-08-24T11:37:57;28.50;99.90
22319;DHT22;11327;52.334;9.506;2023-08-24T11:41:19;28.80;99.90
22319;DHT22;11327;52.334;9.506;2023-08-24T11:44:46;28.90;99.90
22319;DHT22;11327;52.334;9.506;2023-08-24T11:48:07;28.90;99.90
22319;DHT22;11327;52.334;9.506;2023-08-24T11:51:28;29.00;99.90
22319;DHT22;11327;52.334;9.506;2023-08-24T11:54:51;29.10;99.90
22319;DHT22;11327;52.334;9.506;2023-08-24T11:58:15;29.10;99.90
22319;DHT22;11327;52.334;9.506;2023-08-24T12:01:39;29.20;99.90
22319;DHT22;11327;52.334;9.506;2023-08-24T12:05:05;29.30;99.90
22319;DHT22;11327;52.334;9.506;2023-08-24T12:08:26;29.30;99.90
22319;DHT22;11327;52.334;9.506;2023-08-24T12:11:46;29.40;99.90
22319;DHT22;11327;52.334;9.506;2023-08-24T12:15:08;29.20;99.90
22319;DHT22;11327;52.334;9.506;2023-08-24T12:18:30;29.20;99.90
22319;DHT22;11327;52.334;9.506;2023-08-24T12:21:53;29.30;99.90
22319;DHT22;11327;52.334;9.506;2023-08-24T12:25:14;29.30;99.90
22319;DHT22;11327;52.334;9.506;2023-08-24T12:28:36;29.30;99.90
22319;DHT22;11327;52.334;9.506;2023-08-24T12:31:58;29.20;99.90
22319;DHT22;11327;52.334;9.506;2023-08-24T12:35:18;29.20;99.90
22319;DHT22;11327;52.334;9.506;2023-08-24T12:38:39;29.10;99.90
22319;DHT22;11327;52.334;9.506;2023-08-24T12:42:03;29.00;99.90
22319;DHT22;11327;52.334;9.506;2023-08-24T12:45:24;29.00;99.90
22319;DHT22;11327;52.334;9.506;2023-08-24T12:48:44;29.00;99.90
22319;DHT22;11327;52.334;9.506;2023-08-24T12:52:05;29.00;99.90
22319;DHT22;11327;52.334;9.506;2023-08-24T12:55:29;29.00;99.90
22319;DHT22;11327;52.334;9.506;2023-08-24T12:58:50;29.00;99.90
22319;DHT22;11327;52.334;9.506;2023-08-24T13:02:11;29.20;99.90
22319;DHT22;11327;52.334;9.506;2023-08-24T13:05:31;29.20;99.90
22319;DHT22;11327;52.334;9.506;2023-08-24T13:08:53;29.40;99.90
22319;DHT22;11327;52.334;9.506;2023-08-24T13:12:13;29.40;99.90
22319;DHT22;11327;52.334;9.506;2023-08-24T13:15:34;29.20;99.90
22319;DHT22;11327;52.334;9.506;2023-08-24T13:18:55;29.30;99.90
22319;DHT22;11327;52.334;9.506;2023-08-24T13:22:15;29.30;99.90
22319;DHT22;11327;52.334;9.506;2023-08-24T13:25:37;29.40;99.90
22319;DHT22;11327;52.334;9.506;2023-08-24T13:28:57;29.50;99.90
22319;DHT22;11327;52.334;9.506;2023-08-24T13:32:18;29.40;99.90
22319;DHT22;11327;52.334;9.506;2023-08-24T13:35:40;29.60;99.90
22319;DHT22;11327;52.334;9.506;2023-08-24T13:39:01;29.50;99.90
22319;DHT22;11327;52.334;9.506;2023-08-24T13:42:21;29.70;99.90
22319;DHT22;11327;52.334;9.506;2023-08-24T13:45:42;29.60;99.90
22319;DHT22;11327;52.334;9.506;2023-08-24T13:49:03;29.40;99.90
22319;DHT22;11327;52.334;9.506;2023-08-24T13:52:24;29.30;99.90
22319;DHT22;11327;52.334;9.506;2023-08-24T13:55:44;29.30;99.90
22319;DHT22;11327;52.334;9.506;2023-08-24T13:59:05;29.20;99.90
22319;DHT22;11327;52.334;9.506;2023-08-24T14:02:26;29.10;99.90
22319;DHT22;11327;52.334;9.506;2023-08-24T14:05:47;29.10;99.90
22319;DHT22;11327;52.334;9.506;2023-08-24T14:09:09;28.90;99.90
22319;DHT22;11327;52.334;9.506;2023-08-24T14:12:30;28.80;99.90
22319;DHT22;11327;52.334;9.506;2023-08-24T14:15:51;28.80;99.90
22319;DHT22;11327;52.334;9.506;2023-08-24T14:19:12;28.70;99.90
22319;DHT22;11327;52.334;9.506;2023-08-24T14:22:32;28.60;99.90
22319;DHT22;11327;52.334;9.506;2023-08-24T14:25:53;28.60;99.90
22319;DHT22;11327;52.334;9.506;2023-08-24T14:29:14;28.50;99.90
22319;DHT22;11327;52.334;9.506;2023-08-24T14:32:34;28.50;99.90
22319;DHT22;11327;52.334;9.506;2023-08-24T14:35:55;28.40;99.90
22319;DHT22;11327;52.334;9.506;2023-08-24T14:39:16;28.30;99.90
22319;DHT22;11327;52.334;9.506;2023-08-24T14:42:37;28.20;99.90
22319;DHT22;11327;52.334;9.506;2023-08-24T14:45:57;28.10;99.90
22319;DHT22;11327;52.334;9.506;2023-08-24T14:49:18;28.00;99.90
22319;DHT22;11327;52.334;9.506;2023-08-24T14:52:40;28.20;99.90
22319;DHT22;11327;52.334;9.506;2023-08-24T14:56:01;28.20;99.90
22319;DHT22;11327;52.334;9.506;2023-08-24T14:59:22;28.20;99.90
22319;DHT22;11327;52.334;9.506;2023-08-24T15:02:43;28.10;99.90
22319;DHT22;11327;52.334;9.506;2023-08-24T15:06:05;28.20;99.90
22319;DHT22;11327;52.334;9.506;2023-08-24T15:09:26;28.00;99.90
22319;DHT22;11327;52.334;9.506;2023-08-24T15:12:47;28.00;99.90
22319;DHT22;11327;52.334;9.506;2023-08-24T15:16:08;27.90;99.90
22319;DHT22;11327;52.334;9.506;2023-08-24T15:19:30;28.00;99.90
22319;DHT22;11327;52.334;9.506;2023-08-24T15:22:51;28.00;99.90
22319;DHT22;11327;52.334;9.506;2023-08-24T15:26:11;28.00;99.90
22319;DHT22;11327;52.334;9.506;2023-08-24T15:29:32;27.90;99.90
22319;DHT22;11327;52.334;9.506;2023-08-24T15:32:53;27.80;99.90
22319;DHT22;11327;52.334;9.506;2023-08-24T15:36:14;27.70;99.90
22319;DHT22;11327;52.334;9.506;2023-08-24T15:39:38;27.60;99.90
22319;DHT22;11327;52.334;9.506;2023-08-24T15:42:59;27.50;99.90
22319;DHT22;11327;52.334;9.506;2023-08-24T15:46:20;27.30;99.90
22319;DHT22;11327;52.334;9.506;2023-08-24T15:49:41;27.30;99.90
22319;DHT22;11327;52.334;9.506;2023-08-24T15:53:02;27.20;99.90
22319;DHT22;11327;52.334;9.506;2023-08-24T15:56:23;27.10;99.90
22319;DHT22;11327;52.334;9.506;2023-08-24T15:59:44;27.00;99.90
22319;DHT22;11327;52.334;9.506;2023-08-24T16:03:05;26.90;99.90
22319;DHT22;11327;52.334;9.506;2023-08-24T16:06:25;26.90;99.90
22319;DHT22;11327;52.334;9.506;2023-08-24T16:09:46;26.70;99.90
22319;DHT22;11327;52.334;9.506;2023-08-24T16:13:07;26.70;99.90
22319;DHT22;11327;52.334;9.506;2023-08-24T16:16:28;26.60;99.90
22319;DHT22;11327;52.334;9.506;2023-08-24T16:19:49;26.50;99.90
22319;DHT22;11327;52.334;9.506;2023-08-24T16:23:10;26.40;99.90
22319;DHT22;11327;52.334;9.506;2023-08-24T16:26:31;26.30;99.90
22319;DHT22;11327;52.334;9.506;2023-08-24T16:30:12;26.20;99.90
22319;DHT22;11327;52.334;9.506;2023-08-24T16:33:34;26.10;99.90
22319;DHT22;11327;52.334;9.506;2023-08-24T16:36:54;26.00;99.90
22319;DHT22;11327;52.334;9.506;2023-08-24T16:40:15;25.90;99.90
22319;DHT22;11327;52.334;9.506;2023-08-24T16:43:36;25.90;99.90
22319;DHT22;11327;52.334;9.506;2023-08-24T16:46:56;25.90;99.90
22319;DHT22;11327;52.334;9.506;2023-08-24T16:50:18;25.80;99.90
22319;DHT22;11327;52.334;9.506;2023-08-24T16:53:39;25.80;99.90
22319;DHT22;11327;52.334;9.506;2023-08-24T16:57:00;25.80;99.90
22319;DHT22;11327;52.334;9.506;2023-08-24T17:00:20;25.80;99.90
22319;DHT22;11327;52.334;9.506;2023-08-24T17:03:41;25.80;99.90
22319;DHT22;11327;52.334;9.506;2023-08-24T17:07:02;25.80;99.90
22319;DHT22;11327;52.334;9.506;2023-08-24T17:10:23;25.80;99.90
22319;DHT22;11327;52.334;9.506;2023-08-24T17:13:43;25.80;99.90
22319;DHT22;11327;52.334;9.506;2023-08-24T17:17:04;25.70;99.90
22319;DHT22;11327;52.334;9.506;2023-08-24T17:20:25;25.70;99.90
22319;DHT22;11327;52.334;9.506;2023-08-24T17:23:46;25.60;99.90
22319;DHT22;11327;52.334;9.506;2023-08-24T17:27:07;25.60;99.90
22319;DHT22;11327;52.334;9.506;2023-08-24T17:30:27;25.40;99.90
22319;DHT22;11327;52.334;9.506;2023-08-24T17:33:48;25.40;99.90
22319;DHT22;11327;52.334;9.506;2023-08-24T17:37:09;25.40;99.90
22319;DHT22;11327;52.334;9.506;2023-08-24T17:40:29;25.30;99.90
22319;DHT22;11327;52.334;9.506;2023-08-24T17:43:50;25.30;99.90
22319;DHT22;11327;52.334;9.506;2023-08-24T17:47:11;25.30;99.90
22319;DHT22;11327;52.334;9.506;2023-08-24T17:50:31;25.20;99.90
22319;DHT22;11327;52.334;9.506;2023-08-24T17:53:52;25.10;99.90
22319;DHT22;11327;52.334;9.506;2023-08-24T17:57:13;25.00;99.90
22319;DHT22;11327;52.334;9.506;2023-08-24T18:00:33;25.00;99.90
22319;DHT22;11327;52.334;9.506;2023-08-24T18:03:54;25.00;99.90
22319;DHT22;11327;52.334;9.506;2023-08-24T18:07:16;24.90;99.90
22319;DHT22;11327;52.334;9.506;2023-08-24T18:10:37;24.90;99.90
22319;DHT22;11327;52.334;9.506;2023-08-24T18:13:58;24.80;99.90
22319;DHT22;11327;52.334;9.506;2023-08-24T18:17:18;24.80;99.90
22319;DHT22;11327;52.334;9.506;2023-08-24T18:20:39;24.70;99.90
22319;DHT22;11327;52.334;9.506;2023-08-24T18:24:00;24.70;99.90
22319;DHT22;11327;52.334;9.506;2023-08-24T18:27:20;24.70;99.90
22319;DHT22;11327;52.334;9.506;2023-08-24T18:30:41;24.60;99.90
22319;DHT22;11327;52.334;9.506;2023-08-24T18:34:02;24.60;99.90
22319;DHT22;11327;52.334;9.506;2023-08-24T18:37:24;24.50;99.90
22319;DHT22;11327;52.334;9.506;2023-08-24T18:40:44;24.40;99.90
22319;DHT22;11327;52.334;9.506;2023-08-24T18:44:07;24.40;99.90
22319;DHT22;11327;52.334;9.506;2023-08-24T18:47:28;24.30;99.90
22319;DHT22;11327;52.334;9.506;2023-08-24T18:50:49;24.30;99.90
22319;DHT22;11327;52.334;9.506;2023-08-24T18:54:09;24.20;99.90
22319;DHT22;11327;52.334;9.506;2023-08-24T18:57:30;24.20;99.90
22319;DHT22;11327;52.334;9.506;2023-08-24T19:00:59;24.10;99.90
22319;DHT22;11327;52.334;9.506;2023-08-24T19:04:18;24.20;99.90
22319;DHT22;11327;52.334;9.506;2023-08-24T19:07:39;24.10;99.90
22319;DHT22;11327;52.334;9.506;2023-08-24T19:11:00;24.10;99.90
22319;DHT22;11327;52.334;9.506;2023-08-24T19:14:20;24.10;99.90
22319;DHT22;11327;52.334;9.506;2023-08-24T19:17:41;24.00;99.90
22319;DHT22;11327;52.334;9.506;2023-08-24T19:21:02;23.90;99.90
22319;DHT22;11327;52.334;9.506;2023-08-24T19:24:23;23.90;99.90
22319;DHT22;11327;52.334;9.506;2023-08-24T19:27:44;23.80;99.90
22319;DHT22;11327;52.334;9.506;2023-08-24T19:31:04;23.80;99.90
22319;DHT22;11327;52.334;9.506;2023-08-24T19:34:25;23.80;99.90
22319;DHT22;11327;52.334;9.506;2023-08-24T19:37:46;23.70;99.90
22319;DHT22;11327;52.334;9.506;2023-08-24T19:41:07;23.70;99.90
22319;DHT22;11327;52.334;9.506;2023-08-24T19:44:27;23.60;99.90
22319;DHT22;11327;52.334;9.506;2023-08-24T19:47:48;23.60;99.90
22319;DHT22;11327;52.334;9.506;2023-08-24T19:51:09;23.60;99.90
22319;DHT22;11327;52.334;9.506;2023-08-24T19:54:29;23.60;99.90
22319;DHT22;11327;52.334;9.506;2023-08-24T19:57:51;23.50;99.90
22319;DHT22;11327;52.334;9.506;2023-08-24T20:01:11;23.50;99.90
22319;DHT22;11327;52.334;9.506;2023-08-24T20:04:32;23.50;99.90
22319;DHT22;11327;52.334;9.506;2023-08-24T20:07:54;23.40;99.90
22319;DHT22;11327;52.334;9.506;2023-08-24T20:11:15;23.40;99.90
22319;DHT22;11327;52.334;9.506;2023-08-24T20:14:36;23.30;99.90
22319;DHT22;11327;52.334;9.506;2023-08-24T20:17:57;23.20;99.90
22319;DHT22;11327;52.334;9.506;2023-08-24T20:21:18;23.20;99.90
22319;DHT22;11327;52.334;9.506;2023-08-24T20:24:39;23.20;99.90
22319;DHT22;11327;52.334;9.506;2023-08-24T20:28:00;23.10;99.90
22319;DHT22;11327;52.334;9.506;2023-08-24T20:31:20;23.10;99.90
22319;DHT22;11327;52.334;9.506;2023-08-24T20:34:41;23.10;99.90
22319;DHT22;11327;52.334;9.506;2023-08-24T20:38:02;23.10;99.90
22319;DHT22;11327;52.334;9.506;2023-08-24T20:41:23;23.10;99.90
22319;DHT22;11327;52.334;9.506;2023-08-24T20:44:44;23.10;99.90
22319;DHT22;11327;52.334;9.506;2023-08-24T20:48:05;23.10;99.90
22319;DHT22;11327;52.334;9.506;2023-08-24T20:51:26;23.10;99.90
22319;DHT22;11327;52.334;9.506;2023-08-24T20:54:48;23.10;99.90
22319;DHT22;11327;52.334;9.506;2023-08-24T20:58:08;23.00;99.90
22319;DHT22;11327;52.334;9.506;2023-08-24T21:01:29;23.00;99.90
22319;DHT22;11327;52.334;9.506;2023-08-24T21:04:50;23.00;99.90
22319;DHT22;11327;52.334;9.506;2023-08-24T21:08:11;23.00;99.90
22319;DHT22;11327;52.334;9.506;2023-08-24T21:11:32;22.90;99.90
22319;DHT22;11327;52.334;9.506;2023-08-24T21:14:53;22.90;99.90
22319;DHT22;11327;52.334;9.506;2023-08-24T21:18:14;22.90;99.90
22319;DHT22;11327;52.334;9.506;2023-08-24T21:21:35;22.90;99.90